Time;durP1;ratioP1;P1;durP2;ratioP2;P2;SDS_P1;SDS_P2;PMS_P1;PMS_P2;Temp;Humidity;BMP_temperature;BMP_pressure;BME280_temperature;BME280_humidity;BME280_pressure;Samples;Min_cycle;Max_cycle;Signal;HPM_P1;HPM_P2
2020/12/04 00:02:06;;;;;;;79.87;39.45;;;;;;;2.09;75.47;98980.15;2264889;77;29667;-75
2020/12/04 00:05:08;;;;;;;92.17;44.30;;;;;;;2.10;75.48;98968.67;2296373;77;31181;-73
2020/12/04 00:08:10;;;;;;;99.65;47.38;;;;;;;2.11;75.46;98967.28;2260905;78;33629;-73
2020/12/04 00:11:13;;;;;;;95.40;44.88;;;;;;;2.11;75.51;98963.31;2301299;77;29293;-74
2020/12/04 00:14:15;;;;;;;91.50;42.70;;;;;;;2.13;75.49;98965.45;2302374;77;27686;-75
2020/12/04 00:17:18;;;;;;;94.58;43.87;;;;;;;2.19;75.45;98963.50;2302452;77;28812;-75
2020/12/04 00:20:19;;;;;;;98.35;46.55;;;;;;;2.21;75.54;98959.88;2282567;77;32207;-75
2020/12/04 00:23:22;;;;;;;97.57;48.17;;;;;;;2.23;75.47;98947.47;2263286;77;33090;-74
2020/12/04 00:26:24;;;;;;;82.72;45.15;;;;;;;2.25;75.48;98940.80;2282129;77;28787;-73
2020/12/04 00:29:26;;;;;;;88.35;46.90;;;;;;;2.26;75.58;98938.56;2301737;77;27640;-73
2020/12/04 00:32:29;;;;;;;92.37;45.73;;;;;;;2.29;75.57;98949.02;2301277;77;29746;-75
2020/12/04 00:35:31;;;;;;;85.42;45.70;;;;;;;2.32;75.59;98937.02;2278961;77;31104;-74
2020/12/04 00:38:33;;;;;;;89.87;43.85;;;;;;;2.34;75.54;98925.94;2302006;77;33056;-70
2020/12/04 00:41:35;;;;;;;102.05;47.93;;;;;;;2.32;75.49;98926.92;2299429;77;28854;-76
2020/12/04 00:44:38;;;;;;;99.87;45.35;;;;;;;2.31;75.55;98924.72;2302485;77;27553;-75
2020/12/04 00:47:40;;;;;;;89.13;45.00;;;;;;;2.33;75.50;98918.05;2280642;77;28801;-75
2020/12/04 00:50:42;;;;;;;94.95;45.60;;;;;;;2.30;75.56;98921.67;2281153;77;32426;-73
2020/12/04 00:53:45;;;;;;;80.15;40.10;;;;;;;2.30;75.64;98924.32;2260868;77;33959;-75
2020/12/04 00:56:47;;;;;;;103.17;48.38;;;;;;;2.29;75.84;98918.63;2262019;77;28845;-75
2020/12/04 00:59:49;;;;;;;92.62;46.58;;;;;;;2.28;75.78;98909.86;2261173;78;27756;-68
2020/12/04 01:06:12;;;;;;;95.17;46.77;;;;;;;2.32;75.98;98898.70;2310993;76;27727;-74
2020/12/04 01:09:15;;;;;;;91.22;44.08;;;;;;;2.27;76.04;98900.65;2289691;77;27751;-75
2020/12/04 01:12:17;;;;;;;94.37;43.95;;;;;;;2.30;76.14;98897.89;2303777;77;28861;-74
2020/12/04 01:15:19;;;;;;;90.45;46.73;;;;;;;2.31;76.19;98898.77;2303595;77;31125;-74
2020/12/04 01:18:21;;;;;;;98.45;50.23;;;;;;;2.31;76.11;98894.81;2303353;77;33570;-75
2020/12/04 01:21:23;;;;;;;91.53;47.20;;;;;;;2.32;76.17;98890.77;2285864;77;28579;-75
2020/12/04 01:24:26;;;;;;;86.12;41.50;;;;;;;2.32;76.24;98886.81;2299178;77;27621;-76
2020/12/04 01:27:28;;;;;;;86.82;41.95;;;;;;;2.34;76.27;98884.97;2265435;75;28739;-75
2020/12/04 01:30:30;;;;;;;91.32;43.95;;;;;;;2.38;76.20;98881.74;2290626;77;31065;-76
2020/12/04 01:33:32;;;;;;;65.78;34.03;;;;;;;2.41;76.22;98884.27;2303561;77;33968;-73
2020/12/04 01:36:34;;;;;;;81.08;42.80;;;;;;;2.42;76.31;98880.70;2269275;77;29808;-74
2020/12/04 01:39:37;;;;;;;81.12;42.95;;;;;;;2.45;76.25;98873.11;2261433;77;28144;-76
2020/12/04 01:42:39;;;;;;;83.22;43.40;;;;;;;2.48;76.23;98873.87;2273204;77;28806;-76
2020/12/04 01:45:41;;;;;;;89.67;43.55;;;;;;;2.51;76.18;98867.11;2303164;77;31237;-75
2020/12/04 01:48:47;;;;;;;68.00;32.83;;;;;;;2.52;76.17;98858.27;2264194;77;33364;-74
2020/12/04 01:51:51;;;;;;;74.05;38.25;;;;;;;2.55;76.25;98857.30;2268371;77;28849;-74
2020/12/04 01:54:53;;;;;;;79.72;39.90;;;;;;;2.55;76.18;98859.47;2271449;77;27630;-75
2020/12/04 01:57:55;;;;;;;78.45;41.18;;;;;;;2.57;76.17;98850.14;2262125;77;28811;-74
2020/12/04 02:00:57;;;;;;;72.60;38.90;;;;;;;2.61;76.17;98842.50;2264052;77;31135;-72
2020/12/04 02:03:59;;;;;;;72.58;38.35;;;;;;;2.63;76.18;98845.09;2261529;78;33087;-75
2020/12/04 02:07:07;;;;;;;75.30;40.58;;;;;;;2.61;76.16;98842.50;2278432;77;28926;-74
2020/12/04 02:10:17;;;;;;;77.53;37.53;;;;;;;2.60;76.16;98832.84;2302172;77;27689;-74
2020/12/04 02:13:20;;;;;;;71.47;37.42;;;;;;;2.63;76.24;98831.88;2260000;77;28610;-75
2020/12/04 02:16:23;;;;;;;69.75;34.25;;;;;;;2.65;76.21;98830.03;2293730;77;31637;-73
2020/12/04 02:19:25;;;;;;;67.72;36.93;;;;;;;2.69;76.16;98825.87;2273901;77;33095;-70
2020/12/04 02:22:37;;;;;;;65.45;35.80;;;;;;;2.71;76.15;98824.03;2261877;77;29790;-76
2020/12/04 02:25:39;;;;;;;71.40;37.30;;;;;;;2.73;76.16;98815.54;2302889;77;27627;-75
2020/12/04 02:28:41;;;;;;;66.97;35.63;;;;;;;2.79;76.18;98812.25;2301723;77;28853;-75
2020/12/04 02:31:43;;;;;;;63.05;33.80;;;;;;;2.81;76.16;98814.38;2285310;77;30970;-74
2020/12/04 02:34:45;;;;;;;71.20;36.13;;;;;;;2.82;76.01;98805.52;2299990;77;33176;-74
2020/12/04 02:37:47;;;;;;;61.75;34.30;;;;;;;2.83;76.00;98804.59;2300355;77;28846;-75
2020/12/04 02:40:50;;;;;;;74.53;37.90;;;;;;;2.82;76.04;98800.23;2302816;77;27664;-73
2020/12/04 02:43:52;;;;;;;73.55;36.68;;;;;;;2.80;76.01;98796.34;2288325;77;28813;-74
2020/12/04 02:46:55;;;;;;;74.00;35.92;;;;;;;2.81;76.04;98794.54;2269770;75;31121;-73
2020/12/04 02:49:57;;;;;;;68.85;36.20;;;;;;;2.86;76.00;98788.13;2277035;77;33298;-71
2020/12/04 02:52:59;;;;;;;71.07;36.38;;;;;;;2.85;75.96;98788.20;2271081;77;28846;-75
2020/12/04 02:56:01;;;;;;;73.28;37.55;;;;;;;2.91;75.98;98791.05;2283615;77;27625;-76
2020/12/04 02:59:04;;;;;;;72.35;36.10;;;;;;;2.92;75.95;98788.32;2245809;77;29783;-77
2020/12/04 03:02:06;;;;;;;70.40;36.55;;;;;;;2.93;75.92;98786.55;2233052;79;32172;-76
2020/12/04 03:05:08;;;;;;;69.42;35.13;;;;;;;2.93;75.88;98781.27;2254803;77;33197;-76
2020/12/04 03:08:10;;;;;;;58.42;29.75;;;;;;;2.93;75.94;98772.84;2261797;78;28838;-75
2020/12/04 03:11:12;;;;;;;72.60;35.65;;;;;;;2.93;75.96;98775.49;2262109;77;27697;-75
2020/12/04 03:14:14;;;;;;;65.25;36.20;;;;;;;2.92;75.95;98777.74;2262917;77;29987;-74
2020/12/04 03:17:17;;;;;;;66.97;35.68;;;;;;;2.95;75.95;98774.97;2285522;77;32089;-75
2020/12/04 03:20:19;;;;;;;64.37;34.10;;;;;;;2.99;75.93;98765.98;2302828;77;33086;-74
2020/12/04 03:23:21;;;;;;;60.92;31.37;;;;;;;3.04;75.89;98757.84;2302815;77;28877;-75
2020/12/04 03:26:23;;;;;;;57.25;32.35;;;;;;;3.04;75.82;98752.10;2303191;77;27614;-76
2020/12/04 03:29:25;;;;;;;58.83;31.75;;;;;;;3.05;75.77;98745.02;2303008;77;28831;-74
2020/12/04 03:32:27;;;;;;;63.15;31.77;;;;;;;3.01;75.75;98736.36;2283048;77;32489;-75
2020/12/04 03:35:30;;;;;;;54.30;30.37;;;;;;;2.96;75.86;98723.79;2277368;77;33129;-73
2020/12/04 03:38:32;;;;;;;54.58;30.75;;;;;;;2.93;75.91;98722.59;2289934;77;28854;-72
2020/12/04 03:41:34;;;;;;;52.10;27.20;;;;;;;2.92;76.02;98726.64;2271285;77;27709;-75
2020/12/04 03:44:36;;;;;;;46.20;24.77;;;;;;;2.92;76.04;98714.73;2298602;77;30186;-76
2020/12/04 03:47:38;;;;;;;53.73;27.52;;;;;;;2.93;76.11;98708.52;2292740;77;31183;-76
2020/12/04 03:50:40;;;;;;;52.38;28.17;;;;;;;2.95;76.11;98694.77;2300899;77;33095;-75
2020/12/04 03:53:42;;;;;;;50.10;28.52;;;;;;;2.95;76.11;98694.77;2303037;77;28987;-73
2020/12/04 03:56:44;;;;;;;49.60;27.45;;;;;;;2.96;76.21;98688.55;2303242;77;27606;-73
2020/12/04 03:59:47;;;;;;;44.70;22.45;;;;;;;2.99;76.22;98694.56;2275990;77;28880;-75
2020/12/04 04:02:50;;;;;;;47.03;24.52;;;;;;;2.99;76.28;98691.91;2222422;77;31586;-78
2020/12/04 04:05:52;;;;;;;39.95;20.95;;;;;;;3.01;76.20;98688.74;2265602;77;33060;-77
2020/12/04 04:08:54;;;;;;;38.98;21.82;;;;;;;3.03;76.18;98677.63;2215355;78;29807;-76
2020/12/04 04:11:56;;;;;;;46.13;25.70;;;;;;;3.09;76.23;98675.61;2186853;77;27681;-75
2020/12/04 04:14:59;;;;;;;45.58;26.27;;;;;;;3.10;76.21;98673.37;2268082;77;29513;-72
2020/12/04 04:18:01;;;;;;;43.45;24.43;;;;;;;3.14;76.19;98668.34;2217038;78;31402;-78
2020/12/04 04:21:09;;;;;;;48.83;25.35;;;;;;;3.16;76.20;98665.16;2235057;78;32670;-73
2020/12/04 04:24:08;;;;;;;;;;;;;;;3.17;76.14;98653.17;2239174;77;30075;-77
2020/12/04 04:27:11;;;;;;;40.65;22.60;;;;;;;3.21;76.11;98652.59;2235628;77;27972;-78
2020/12/04 04:30:13;;;;;;;44.95;24.65;;;;;;;3.24;76.12;98644.48;2189889;77;29674;-78
2020/12/04 04:33:15;;;;;;;42.13;24.12;;;;;;;3.28;76.09;98638.60;2269045;77;31201;-79
2020/12/04 04:36:17;;;;;;;48.95;26.48;;;;;;;3.32;76.08;98633.53;2232350;77;32909;-79
2020/12/04 04:39:19;;;;;;;42.83;22.80;;;;;;;3.34;76.05;98623.29;2274182;77;29165;-76
2020/12/04 04:42:22;;;;;;;45.33;24.65;;;;;;;3.40;76.03;98617.29;2240578;77;27733;-71
2020/12/04 04:45:24;;;;;;;40.45;22.90;;;;;;;3.46;75.91;98631.13;2219746;77;30234;-79
2020/12/04 04:48:29;;;;;;;41.08;23.42;;;;;;;3.49;75.80;98623.48;2267563;77;31132;-78
2020/12/04 04:51:32;;;;;;;47.20;25.25;;;;;;;3.51;75.67;98625.59;2210344;78;33981;-78
2020/12/04 04:54:36;;;;;;;42.75;24.85;;;;;;;3.53;75.67;98624.19;2275534;77;28847;-79
2020/12/04 04:57:38;;;;;;;48.90;24.80;;;;;;;3.54;75.55;98623.27;2247733;77;27900;-79
2020/12/04 05:00:40;;;;;;;42.20;23.65;;;;;;;3.55;75.48;98622.33;2277073;77;29063;-79
2020/12/04 05:03:56;;;;;;;46.15;24.95;;;;;;;3.56;75.38;98637.28;2210203;78;31902;-76
2020/12/04 05:06:58;;;;;;;41.80;23.42;;;;;;;3.56;75.47;98622.25;2261944;77;33782;-79
2020/12/04 05:10:16;;;;;;;46.95;25.52;;;;;;;3.57;75.41;98627.94;2221467;77;29282;-77
2020/12/04 05:13:20;;;;;;;44.25;24.15;;;;;;;3.58;75.45;98627.48;2270876;77;27804;-77
2020/12/04 05:16:28;;;;;;;32.53;16.30;;;;;;;3.58;75.46;98616.41;2277417;77;28905;-78
2020/12/04 05:19:36;;;;;;;51.35;26.48;;;;;;;3.60;75.56;98615.88;2302364;77;31258;-76
2020/12/04 05:22:38;;;;;;;46.40;24.45;;;;;;;3.67;75.61;98620.41;2274998;77;34137;-77
2020/12/04 05:25:53;;;;;;;49.05;26.90;;;;;;;3.65;75.53;98598.44;2235570;78;28863;-76
2020/12/04 05:28:55;;;;;;;47.10;25.68;;;;;;;3.79;75.46;98605.27;2236187;78;27694;-77
2020/12/04 05:31:59;;;;;;;50.60;27.73;;;;;;;3.86;75.40;98608.91;2180055;78;28605;-73
2020/12/04 05:35:06;;;;;;;47.70;26.50;;;;;;;3.93;75.32;98609.86;2184602;78;31903;-76
2020/12/04 05:38:15;;;;;;;49.93;27.17;;;;;;;4.01;75.22;98619.23;2262969;78;33261;-75
2020/12/04 05:41:17;;;;;;;46.18;26.35;;;;;;;4.09;75.09;98615.27;2236179;78;28997;-76
2020/12/04 05:44:19;;;;;;;56.33;30.43;;;;;;;4.15;74.91;98608.79;2235553;78;27734;-76
2020/12/04 05:47:22;;;;;;;56.08;29.75;;;;;;;4.20;74.98;98616.05;2210537;78;29157;-76
2020/12/04 05:50:24;;;;;;;56.60;29.95;;;;;;;4.25;74.82;98615.33;2209843;78;30939;-75
2020/12/04 05:53:26;;;;;;;56.02;30.25;;;;;;;4.31;74.70;98616.80;2236566;78;33157;-77
2020/12/04 05:56:28;;;;;;;59.95;32.30;;;;;;;4.35;74.54;98618.36;2205150;78;28867;-75
2020/12/04 05:59:30;;;;;;;61.33;32.58;;;;;;;4.40;74.39;98630.92;2236116;78;27661;-74
2020/12/04 06:02:32;;;;;;;62.62;31.95;;;;;;;4.44;74.35;98622.82;2263436;78;28899;-76
2020/12/04 06:05:34;;;;;;;63.78;31.55;;;;;;;4.46;73.92;98621.80;2183251;78;31703;-75
2020/12/04 06:08:41;;;;;;;58.28;32.65;;;;;;;4.49;74.29;98626.06;2235766;78;34022;-73
2020/12/04 06:11:48;;;;;;;70.90;35.52;;;;;;;4.53;74.16;98627.63;2236359;78;29155;-74
2020/12/04 06:14:51;;;;;;;60.63;33.40;;;;;;;4.54;74.08;98632.88;2210010;78;27682;-76
2020/12/04 06:18:04;;;;;;;77.87;37.63;;;;;;;4.58;74.02;98644.63;2208835;78;28815;-77
2020/12/04 06:21:06;;;;;;;75.42;38.40;;;;;;;4.60;74.05;98642.75;2263136;78;31143;-77
2020/12/04 06:24:08;;;;;;;72.55;37.85;;;;;;;4.61;73.93;98644.02;2209832;78;33410;-76
2020/12/04 06:27:33;;;;;;;68.15;34.80;;;;;;;4.62;73.93;98655.47;2210183;78;29135;-75
2020/12/04 06:30:37;;;;;;;68.97;36.17;;;;;;;4.61;73.84;98651.98;2236495;78;28293;-75
2020/12/04 06:33:49;;;;;;;65.67;36.00;;;;;;;4.65;73.92;98651.34;2212277;77;29488;-76
2020/12/04 06:36:51;;;;;;;73.30;37.50;;;;;;;4.68;73.50;98645.88;2250281;77;32131;-74
2020/12/04 06:39:53;;;;;;;71.40;38.90;;;;;;;4.68;73.58;98649.38;2248814;77;34038;-73
2020/12/04 06:42:59;;;;;;;76.53;40.05;;;;;;;4.70;73.52;98654.13;2222183;77;29897;-75
2020/12/04 06:46:01;;;;;;;79.87;41.53;;;;;;;4.70;73.71;98658.59;2276745;77;27701;-77
2020/12/04 06:49:22;;;;;;;74.70;38.30;;;;;;;4.69;73.42;98649.77;2250280;77;28834;-77
2020/12/04 06:52:25;;;;;;;74.07;39.88;;;;;;;4.71;73.38;98655.01;2249844;77;31629;-76
2020/12/04 06:55:27;;;;;;;82.12;43.85;;;;;;;4.72;73.32;98648.73;2276639;77;32911;-74
2020/12/04 06:58:30;;;;;;;85.35;46.10;;;;;;;4.73;73.45;98649.61;2250290;77;29576;-75
2020/12/04 07:01:32;;;;;;;94.10;48.52;;;;;;;4.73;73.30;98649.61;2211595;78;27718;-75
2020/12/04 07:04:38;;;;;;;85.62;45.73;;;;;;;4.73;73.31;98665.53;2209840;77;28630;-77
2020/12/04 07:07:40;;;;;;;93.60;47.05;;;;;;;4.71;73.26;98654.53;2236646;78;31131;-78
2020/12/04 07:10:42;;;;;;;85.90;41.15;;;;;;;4.71;73.35;98649.22;2213189;80;33115;-77
2020/12/04 07:13:44;;;;;;;92.78;45.15;;;;;;;4.71;72.91;98646.56;2212641;80;29159;-76
2020/12/04 07:16:47;;;;;;;86.20;44.67;;;;;;;4.72;73.10;98642.11;2164338;80;27695;-77
2020/12/04 07:19:52;;;;;;;87.95;47.45;;;;;;;4.70;72.89;98639.55;2213718;80;28808;-75
2020/12/04 07:22:55;;;;;;;90.57;47.33;;;;;;;4.70;72.99;98640.88;2188226;80;31150;-73
2020/12/04 07:26:12;;;;;;;98.78;46.68;;;;;;;4.70;73.11;98640.03;2138749;81;33706;-77
2020/12/04 07:29:21;;;;;;;95.60;47.95;;;;;;;4.70;73.07;98640.03;2163880;81;30122;-77
2020/12/04 07:32:29;;;;;;;93.33;46.18;;;;;;;4.68;73.16;98637.92;2141138;81;27673;-77
2020/12/04 07:35:49;;;;;;;82.55;41.10;;;;;;;4.67;72.99;98637.53;2139481;81;28707;-72
2020/12/04 07:38:58;;;;;;;92.57;44.15;;;;;;;4.67;73.00;98635.72;2164080;80;31159;-77
2020/12/04 07:42:02;;;;;;;89.83;44.65;;;;;;;4.69;73.10;98639.64;2191001;80;33132;-76
2020/12/04 07:45:05;;;;;;;77.37;41.45;;;;;;;4.69;73.04;98635.66;2225938;80;28636;-77
2020/12/04 07:48:08;;;;;;;70.05;37.65;;;;;;;4.73;73.13;98641.66;2200897;80;28410;-77
2020/12/04 07:51:12;;;;;;;82.12;45.08;;;;;;;4.73;72.96;98634.53;2201475;80;28879;-76
2020/12/04 07:54:23;;;;;;;81.90;45.20;;;;;;;4.75;73.06;98641.95;2201035;80;31019;-71
2020/12/04 07:57:35;;;;;;;79.12;42.83;;;;;;;4.77;73.11;98633.93;2175770;80;33169;-77
2020/12/04 08:00:37;;;;;;;70.32;35.65;;;;;;;4.79;73.14;98630.25;2164300;81;29257;-75
2020/12/04 08:03:40;;;;;;;73.70;37.42;;;;;;;4.83;72.99;98634.91;2163169;81;27683;-76
2020/12/04 08:06:42;;;;;;;76.90;40.15;;;;;;;4.86;73.00;98638.73;2127234;82;29987;-76
2020/12/04 08:09:45;;;;;;;73.57;39.58;;;;;;;4.90;73.02;98640.30;2154446;82;30777;-76
2020/12/04 08:12:49;;;;;;;73.97;40.67;;;;;;;4.92;72.97;98636.22;2130307;82;33132;-73
2020/12/04 08:15:53;;;;;;;72.33;37.30;;;;;;;4.94;72.97;98644.95;2136083;81;29270;-75
2020/12/04 08:19:09;;;;;;;69.20;39.65;;;;;;;4.97;73.01;98652.77;2130431;82;27841;-76
2020/12/04 08:22:08;;;;;;;69.40;38.83;;;;;;;4.99;73.06;98646.42;2126504;81;28814;-76
2020/12/04 08:25:12;;;;;;;70.20;37.23;;;;;;;5.04;73.08;98647.53;2150333;81;31202;-72
2020/12/04 08:28:14;;;;;;;69.75;37.70;;;;;;;5.08;73.16;98646.89;2175313;81;33129;-75
2020/12/04 08:31:25;;;;;;;59.20;31.95;;;;;;;5.10;73.13;98649.83;2148219;81;29168;-76
2020/12/04 08:34:27;;;;;;;66.53;35.95;;;;;;;5.15;73.05;98642.94;2126651;82;27676;-75
2020/12/04 08:37:30;;;;;;;77.58;37.08;;;;;;;5.24;73.19;98635.82;2114059;82;29356;-75
2020/12/04 08:40:33;;;;;;;62.23;33.65;;;;;;;5.34;73.22;98634.84;2114144;82;31015;-74
2020/12/04 08:43:40;;;;;;;58.08;31.40;;;;;;;5.42;73.22;98640.58;2137606;82;33174;-72
2020/12/04 08:46:42;;;;;;;60.58;32.95;;;;;;;5.48;72.93;98637.59;2154937;82;28388;-73
2020/12/04 08:49:50;;;;;;;49.30;28.23;;;;;;;5.47;72.84;98629.23;2114238;82;27694;-74
2020/12/04 08:52:55;;;;;;;41.73;23.52;;;;;;;5.48;72.92;98631.41;2113408;82;29613;-72
2020/12/04 08:55:59;;;;;;;47.17;25.40;;;;;;;5.47;72.93;98635.00;2091099;82;31007;-73
2020/12/04 08:59:01;;;;;;;39.80;23.97;;;;;;;5.50;72.99;98639.30;2091613;79;33069;-74
2020/12/04 09:02:04;;;;;;;31.33;19.17;;;;;;;5.52;73.02;98634.77;2091407;82;30035;-74
2020/12/04 09:05:10;;;;;;;39.30;21.00;;;;;;;5.55;72.94;98639.43;2137564;82;28003;-74
2020/12/04 09:08:13;;;;;;;34.88;20.90;;;;;;;5.61;73.09;98650.18;2154364;80;29112;-69
2020/12/04 09:11:15;;;;;;;36.40;21.97;;;;;;;5.68;72.99;98642.72;2125878;81;31117;-73
2020/12/04 09:14:17;;;;;;;31.77;18.25;;;;;;;5.75;72.91;98642.77;2153499;80;34041;-71
2020/12/04 09:17:20;;;;;;;29.67;18.82;;;;;;;5.85;72.78;98658.56;2183627;80;29225;-69
2020/12/04 09:20:23;;;;;;;31.80;19.70;;;;;;;5.93;72.79;98659.00;2187103;80;27642;-74
2020/12/04 09:23:25;;;;;;;39.27;21.75;;;;;;;6.04;72.66;98656.22;2216685;80;29329;-72
2020/12/04 09:26:27;;;;;;;35.15;19.62;;;;;;;6.14;72.67;98659.20;2144055;79;30928;-72
2020/12/04 09:29:29;;;;;;;29.52;18.45;;;;;;;6.22;72.32;98655.16;2171791;79;33113;-70
2020/12/04 09:32:31;;;;;;;35.52;21.00;;;;;;;6.31;72.37;98652.44;2147445;79;28935;-69
2020/12/04 09:35:34;;;;;;;33.42;20.62;;;;;;;6.42;72.03;98665.56;2171469;79;27749;-72
2020/12/04 09:38:36;;;;;;;44.90;25.45;;;;;;;6.49;71.80;98657.61;2196264;79;28147;-65
2020/12/04 09:41:43;;;;;;;33.95;19.98;;;;;;;6.60;71.87;98655.64;2144564;79;31229;-73
2020/12/04 09:44:46;;;;;;;35.48;19.27;;;;;;;6.71;71.74;98650.53;2159030;81;33208;-73
2020/12/04 09:47:48;;;;;;;36.68;20.35;;;;;;;6.83;71.03;98640.45;2134613;81;29805;-69
2020/12/04 09:50:51;;;;;;;33.55;19.05;;;;;;;6.89;71.04;98631.23;2134736;81;27728;-73
2020/12/04 09:53:54;;;;;;;40.30;24.60;;;;;;;6.97;70.85;98628.97;2088176;81;28529;-73
2020/12/04 09:56:57;;;;;;;38.40;24.37;;;;;;;7.06;70.69;98634.20;2115784;81;31857;-72
2020/12/04 10:00:00;;;;;;;38.48;20.37;;;;;;;7.12;70.88;98626.30;2189019;81;33094;-66
2020/12/04 10:03:02;;;;;;;35.20;19.98;;;;;;;7.15;70.06;98627.45;2134783;81;29205;-72
2020/12/04 10:06:05;;;;;;;41.42;22.45;;;;;;;7.13;70.12;98628.02;2187742;78;27688;-71
2020/12/04 10:09:07;;;;;;;32.05;20.15;;;;;;;7.16;70.31;98625.16;2190518;80;29285;-71
2020/12/04 10:12:10;;;;;;;41.28;21.10;;;;;;;7.19;69.83;98624.10;2166046;80;31061;-69
2020/12/04 10:15:12;;;;;;;36.68;22.20;;;;;;;7.21;70.32;98627.04;2140986;80;33857;-71
2020/12/04 10:18:14;;;;;;;34.40;19.67;;;;;;;7.28;70.22;98627.05;2190851;80;29144;-71
2020/12/04 10:21:18;;;;;;;42.65;24.10;;;;;;;7.35;69.55;98616.86;2142243;80;27635;-70
2020/12/04 10:24:20;;;;;;;40.33;23.97;;;;;;;7.41;69.77;98616.48;2166354;80;28349;-70
2020/12/04 10:27:23;;;;;;;41.65;22.77;;;;;;;7.46;69.88;98616.17;2175351;81;32195;-69
2020/12/04 10:30:25;;;;;;;41.83;23.77;;;;;;;7.51;69.36;98602.09;2105706;81;32877;-71
2020/12/04 10:33:27;;;;;;;42.15;23.60;;;;;;;7.52;69.57;98598.47;2151374;81;29854;-71
2020/12/04 10:36:30;;;;;;;35.88;20.90;;;;;;;7.54;69.37;98601.86;2128749;81;27697;-72
2020/12/04 10:39:32;;;;;;;34.25;20.72;;;;;;;7.57;69.14;98595.50;2151960;81;28618;-72
2020/12/04 10:42:35;;;;;;;33.53;20.77;;;;;;;7.57;69.22;98588.34;2129030;81;30936;-72
2020/12/04 10:45:37;;;;;;;30.52;18.20;;;;;;;7.59;69.16;98586.45;2124328;81;33837;-71
2020/12/04 10:48:39;;;;;;;28.87;17.95;;;;;;;7.63;68.62;98592.91;2129264;81;29151;-72
2020/12/04 10:51:42;;;;;;;28.50;17.07;;;;;;;7.69;69.11;98590.70;2129086;81;27770;-73
2020/12/04 10:54:44;;;;;;;18.42;11.30;;;;;;;7.84;69.22;98594.64;2142648;80;28085;-72
2020/12/04 10:57:46;;;;;;;26.07;15.78;;;;;;;8.00;68.32;98584.67;2152152;80;30680;-73
2020/12/04 11:00:50;;;;;;;23.22;12.65;;;;;;;8.09;68.21;98583.20;2157702;80;33286;-71
2020/12/04 11:06:58;;;;;;;23.62;14.40;;;;;;;8.23;68.23;98588.95;2200494;78;27802;-71
2020/12/04 11:10:00;;;;;;;23.80;14.83;;;;;;;8.25;68.07;98583.48;2195066;78;29029;-72
2020/12/04 11:13:03;;;;;;;22.30;14.30;;;;;;;8.20;67.71;98576.65;2136183;80;30985;-73
2020/12/04 11:16:06;;;;;;;23.12;14.58;;;;;;;8.12;67.45;98560.33;2138806;80;32914;-71
2020/12/04 11:19:10;;;;;;;19.73;13.65;;;;;;;8.03;67.39;98560.47;2116814;80;29176;-72
2020/12/04 11:22:13;;;;;;;24.10;14.60;;;;;;;7.93;66.87;98542.05;2188885;80;27711;-72
2020/12/04 11:25:16;;;;;;;22.42;14.53;;;;;;;7.86;67.32;98538.91;2208561;78;28935;-66
2020/12/04 11:28:18;;;;;;;30.02;16.48;;;;;;;7.83;67.45;98532.48;2153832;78;29837;-69
2020/12/04 11:31:20;;;;;;;26.77;16.40;;;;;;;7.81;67.74;98525.06;2153624;78;32665;-69
2020/12/04 11:34:23;;;;;;;23.77;15.28;;;;;;;7.83;67.75;98532.95;2202568;78;28954;-71
2020/12/04 11:37:25;;;;;;;29.25;17.02;;;;;;;7.83;67.68;98544.94;2202828;78;27583;-69
2020/12/04 11:40:27;;;;;;;24.63;15.00;;;;;;;7.84;67.77;98549.31;2177948;78;28650;-71
2020/12/04 11:43:30;;;;;;;24.23;15.38;;;;;;;7.87;67.07;98551.30;2175131;80;31019;-72
2020/12/04 11:46:32;;;;;;;30.50;20.97;;;;;;;7.90;67.43;98562.25;2194174;80;33206;-72
2020/12/04 11:49:36;;;;;;;24.92;16.57;;;;;;;7.93;67.72;98551.39;2195790;78;29184;-69
2020/12/04 11:52:38;;;;;;;24.70;16.12;;;;;;;7.95;67.87;98565.94;2216260;80;27674;-70
2020/12/04 11:55:41;;;;;;;26.80;16.77;;;;;;;7.96;67.60;98576.48;2216133;79;28825;-67
2020/12/04 11:58:44;;;;;;;22.75;14.80;;;;;;;7.96;67.64;98571.65;2189290;80;31026;-69
2020/12/04 12:01:46;;;;;;;24.20;15.48;;;;;;;7.96;67.63;98579.65;2190205;78;33128;-70
2020/12/04 12:04:49;;;;;;;23.22;14.38;;;;;;;7.95;67.67;98584.11;2164078;80;28949;-69
2020/12/04 12:07:51;;;;;;;23.42;12.60;;;;;;;7.94;67.41;98574.89;2151523;81;27643;-67
2020/12/04 12:10:55;;;;;;;27.30;16.50;;;;;;;7.92;67.12;98576.34;2110063;81;28914;-71
2020/12/04 12:13:58;;;;;;;17.60;10.75;;;;;;;7.95;67.58;98580.11;2135279;81;34390;-68
2020/12/04 12:17:01;;;;;;;25.25;16.37;;;;;;;7.95;67.58;98580.11;2134594;81;34196;-72
2020/12/04 12:20:03;;;;;;;26.33;16.23;;;;;;;8.01;67.96;98583.71;2136463;79;30323;-72
2020/12/04 12:23:05;;;;;;;23.10;14.47;;;;;;;8.10;67.84;98570.73;2197240;79;27887;-71
2020/12/04 12:26:07;;;;;;;23.00;15.30;;;;;;;8.11;67.36;98576.44;2195909;79;28612;-68
2020/12/04 12:29:09;;;;;;;22.35;14.47;;;;;;;8.05;67.36;98580.34;2172146;79;31139;-72
2020/12/04 12:32:12;;;;;;;23.70;14.90;;;;;;;8.02;67.67;98584.58;2171346;79;32963;-69
2020/12/04 12:35:15;;;;;;;21.80;14.85;;;;;;;7.98;67.58;98591.06;2196640;79;28855;-67
2020/12/04 12:38:17;;;;;;;21.60;13.80;;;;;;;7.92;67.69;98593.67;2172181;79;27655;-67
2020/12/04 12:41:20;;;;;;;19.32;13.35;;;;;;;7.86;67.80;98594.91;2197011;79;28800;-70
2020/12/04 12:44:22;;;;;;;24.35;15.78;;;;;;;7.83;67.70;98599.59;2196558;79;31158;-72
2020/12/04 12:47:25;;;;;;;25.55;15.60;;;;;;;7.77;67.94;98600.86;2195951;79;33102;-71
2020/12/04 12:50:27;;;;;;;23.67;15.03;;;;;;;7.72;67.97;98605.16;2171492;79;28901;-67
2020/12/04 12:53:30;;;;;;;21.07;13.62;;;;;;;7.66;68.08;98585.56;2197266;79;27691;-72
2020/12/04 12:56:32;;;;;;;25.37;15.32;;;;;;;7.60;68.19;98580.66;2197037;79;28903;-71
2020/12/04 12:59:34;;;;;;;26.27;17.45;;;;;;;7.54;68.25;98585.03;2158264;81;31182;-72
2020/12/04 13:02:36;;;;;;;22.48;16.37;;;;;;;7.49;68.45;98580.47;2162520;81;34037;-69
2020/12/04 13:05:39;;;;;;;23.07;15.05;;;;;;;7.48;68.54;98576.09;2158639;81;29158;-70
2020/12/04 13:08:42;;;;;;;22.10;15.40;;;;;;;7.45;68.53;98568.67;2163228;81;27651;-71
2020/12/04 13:11:44;;;;;;;22.77;15.28;;;;;;;7.45;68.62;98570.50;2133958;81;28999;-72
2020/12/04 13:14:47;;;;;;;25.05;17.12;;;;;;;7.49;68.70;98568.48;2158565;81;30922;-69
2020/12/04 13:17:50;;;;;;;23.12;16.27;;;;;;;7.53;68.71;98562.01;2163309;81;33880;-68
2020/12/04 13:20:52;;;;;;;22.98;15.60;;;;;;;7.54;68.59;98561.05;2208674;79;30137;-66
2020/12/04 13:23:55;;;;;;;25.17;16.67;;;;;;;7.57;68.69;98556.86;2196550;79;27711;-67
2020/12/04 13:27:00;;;;;;;26.23;16.35;;;;;;;7.58;68.56;98563.41;2141129;79;29102;-61
2020/12/04 13:30:04;;;;;;;23.30;15.55;;;;;;;7.59;68.52;98560.28;2171638;79;31223;-66
2020/12/04 13:33:07;;;;;;;24.30;16.75;;;;;;;7.62;68.55;98569.39;2172097;79;34106;-64
2020/12/04 13:36:09;;;;;;;24.95;16.50;;;;;;;7.65;68.41;98567.86;2147799;79;30186;-66
2020/12/04 13:39:17;;;;;;;24.15;15.08;;;;;;;7.66;68.49;98576.23;2189164;79;27811;-62
2020/12/04 13:42:27;;;;;;;25.27;16.82;;;;;;;7.67;68.45;98575.28;2190665;79;28890;-59
2020/12/04 13:45:34;;;;;;;32.70;17.87;;;;;;;7.70;68.30;98578.21;2178517;79;30482;-63
2020/12/04 13:48:39;;;;;;;25.43;17.37;;;;;;;7.70;68.42;98587.08;2215925;79;33925;-63
2020/12/04 13:51:47;;;;;;;47.17;31.73;;;;;;;7.71;68.32;98596.78;2199430;79;28936;-57
2020/12/04 13:54:50;;;;;;;21.75;15.20;;;;;;;7.67;68.22;98600.59;2217781;79;27674;-58
2020/12/04 13:57:53;;;;;;;28.73;20.35;;;;;;;7.67;68.25;98614.42;2166866;79;28754;-61
2020/12/04 14:00:58;;;;;;;26.57;18.82;;;;;;;7.64;68.44;98609.28;2194283;79;31139;-64
2020/12/04 14:04:01;;;;;;;26.68;18.62;;;;;;;7.64;68.50;98608.79;2170987;79;33894;-64
2020/12/04 14:07:04;;;;;;;28.77;16.60;;;;;;;7.62;68.37;98610.70;2217470;79;29145;-61
2020/12/04 14:10:06;;;;;;;20.45;14.87;;;;;;;7.59;68.37;98620.25;2156443;80;27801;-63
2020/12/04 14:13:09;;;;;;;22.52;16.90;;;;;;;7.56;68.19;98616.44;2110657;80;28532;-61
2020/12/04 14:16:14;;;;;;;23.75;15.72;;;;;;;7.51;68.36;98620.74;2184437;79;31792;-69
2020/12/04 14:19:19;;;;;;;26.62;16.90;;;;;;;7.46;68.35;98622.84;2182840;80;33120;-63